Time;durP1;ratioP1;P1;durP2;ratioP2;P2;SDS_P1;SDS_P2;PMS_P1;PMS_P2;Temp;Humidity;BMP_temperature;BMP_pressure;BME280_temperature;BME280_humidity;BME280_pressure;Samples;Min_cycle;Max_cycle;Signal;HPM_P1;HPM_P2
2021/11/01 00:01:49;;;;;;;6.15;1.80;;;22.70;45.70;;;;;;5029249;28;20248;-51
2021/11/01 00:04:22;;;;;;;7.78;2.05;;;22.70;45.80;;;;;;5015900;28;20545;-45
2021/11/01 00:06:52;;;;;;;5.88;1.73;;;22.80;45.80;;;;;;5030472;28;20289;-48
2021/11/01 00:09:23;;;;;;;8.20;2.30;;;22.80;45.90;;;;;;5029648;28;20231;-46
2021/11/01 00:11:53;;;;;;;5.32;1.98;;;22.70;45.80;;;;;;5025646;28;20258;-49
2021/11/01 00:14:24;;;;;;;10.23;3.03;;;22.80;45.90;;;;;;5024730;28;20303;-51
2021/11/01 00:16:55;;;;;;;8.75;2.47;;;22.70;44.40;;;;;;5027357;28;20282;-62
2021/11/01 00:19:27;;;;;;;10.15;2.55;;;22.50;44.90;;;;;;5029688;28;20231;-52
2021/11/01 00:21:58;;;;;;;8.80;2.33;;;22.20;45.50;;;;;;5028240;28;20235;-54
2021/11/01 00:24:28;;;;;;;12.52;2.67;;;21.90;46.00;;;;;;5016393;28;20251;-44
2021/11/01 00:26:59;;;;;;;16.50;2.92;;;21.70;46.90;;;;;;5029729;28;20284;-44
2021/11/01 00:29:29;;;;;;;8.05;2.55;;;21.50;47.00;;;;;;5030035;28;20826;-48
2021/11/01 00:32:00;;;;;;;9.15;2.33;;;21.50;47.10;;;;;;5029960;28;20266;-43
2021/11/01 00:34:32;;;;;;;7.82;2.40;;;21.50;47.10;;;;;;5027759;28;20307;-46
2021/11/01 00:37:02;;;;;;;8.27;2.22;;;21.60;47.10;;;;;;5029021;28;20789;-43
2021/11/01 00:39:33;;;;;;;8.73;2.50;;;21.60;47.20;;;;;;5022549;28;20666;-46
2021/11/01 00:42:04;;;;;;;8.25;2.60;;;21.60;47.30;;;;;;5028753;28;20254;-51
2021/11/01 00:44:36;;;;;;;6.72;2.10;;;21.60;47.40;;;;;;5024960;28;20223;-50
2021/11/01 00:47:10;;;;;;;7.53;2.20;;;21.70;47.50;;;;;;5013806;28;20279;-43
2021/11/01 00:49:43;;;;;;;7.55;1.92;;;21.60;47.50;;;;;;5012971;28;20808;-48
2021/11/01 00:52:13;;;;;;;5.15;1.80;;;21.70;47.60;;;;;;5030693;28;20207;-42
2021/11/01 00:54:44;;;;;;;8.77;1.95;;;21.70;47.60;;;;;;5029474;28;20216;-47
2021/11/01 00:57:14;;;;;;;5.22;2.00;;;21.80;47.70;;;;;;5027233;28;20227;-45
2021/11/01 00:59:45;;;;;;;5.00;2.03;;;21.80;47.70;;;;;;5028658;28;20556;-46
2021/11/01 01:02:15;;;;;;;3.20;1.80;;;21.80;47.80;;;;;;5026323;28;20259;-53
2021/11/01 01:04:48;;;;;;;5.68;2.25;;;21.90;47.90;;;;;;5019466;28;20667;-47
2021/11/01 01:07:18;;;;;;;5.25;2.05;;;21.90;47.90;;;;;;5027662;28;20243;-46
2021/11/01 01:09:49;;;;;;;7.57;2.17;;;21.90;47.90;;;;;;5029442;28;20227;-49
2021/11/01 01:12:20;;;;;;;6.97;2.30;;;22.00;47.90;;;;;;5012960;28;20199;-44
2021/11/01 01:14:56;;;;;;;5.40;1.98;;;22.00;47.90;;;;;;5028202;28;20266;-42
2021/11/01 01:17:26;;;;;;;8.27;2.45;;;22.10;48.00;;;;;;5028616;28;20561;-49
2021/11/01 01:20:05;;;;;;;6.22;2.20;;;22.10;48.00;;;;;;5024824;28;20200;-44
2021/11/01 01:22:36;;;;;;;4.63;2.20;;;22.10;47.90;;;;;;5027248;28;20315;-51
2021/11/01 01:25:17;;;;;;;5.60;1.80;;;22.10;47.90;;;;;;5028516;28;20240;-47
2021/11/01 01:27:48;;;;;;;7.05;1.98;;;22.20;47.90;;;;;;5029304;28;20204;-53
2021/11/01 01:30:20;;;;;;;6.55;1.90;;;22.20;47.90;;;;;;5027533;28;20227;-42
2021/11/01 01:32:50;;;;;;;6.43;1.90;;;22.20;47.90;;;;;;5027773;28;20208;-50
2021/11/01 01:35:23;;;;;;;6.28;2.10;;;22.30;47.90;;;;;;5027693;28;20327;-51
2021/11/01 01:37:54;;;;;;;8.18;2.20;;;22.30;47.90;;;;;;5027370;28;20228;-55
2021/11/01 01:40:25;;;;;;;9.75;2.35;;;22.30;47.90;;;;;;5027058;28;20200;-53
2021/11/01 01:42:55;;;;;;;6.25;2.05;;;22.30;47.90;;;;;;5023445;28;20255;-54
2021/11/01 01:45:26;;;;;;;7.10;2.13;;;22.40;47.90;;;;;;5025843;28;20632;-51
2021/11/01 01:47:56;;;;;;;5.82;1.77;;;22.40;47.90;;;;;;5028414;28;20287;-51
2021/11/01 01:50:29;;;;;;;5.03;2.20;;;22.40;47.90;;;;;;5027229;28;20234;-52
2021/11/01 01:53:00;;;;;;;6.38;2.28;;;22.40;47.90;;;;;;5023450;28;20222;-56
2021/11/01 01:55:31;;;;;;;3.83;1.55;;;22.50;47.90;;;;;;5017126;28;20227;-46
2021/11/01 01:58:01;;;;;;;5.78;2.17;;;22.50;47.90;;;;;;5026569;28;20201;-52
2021/11/01 02:00:43;;;;;;;7.40;1.88;;;22.50;47.90;;;;;;5028186;28;20228;-49
2021/11/01 02:03:15;;;;;;;4.93;1.92;;;22.60;47.90;;;;;;5010124;28;20311;-54
2021/11/01 02:05:54;;;;;;;5.50;2.00;;;22.60;47.90;;;;;;5024299;28;20673;-52
2021/11/01 02:08:24;;;;;;;5.50;2.05;;;22.60;47.90;;;;;;5027965;28;20238;-48
2021/11/01 02:11:04;;;;;;;4.53;2.10;;;22.60;47.90;;;;;;5027157;28;20567;-45
2021/11/01 02:13:43;;;;;;;5.82;2.17;;;22.70;47.90;;;;;;5017259;28;20644;-52
2021/11/01 02:16:15;;;;;;;7.28;2.10;;;22.70;47.90;;;;;;5028807;28;20212;-53
2021/11/01 02:18:50;;;;;;;6.70;2.30;;;22.70;47.90;;;;;;5025834;28;20239;-43
2021/11/01 02:21:27;;;;;;;7.10;2.00;;;22.70;47.90;;;;;;5022286;28;20678;-42
2021/11/01 02:24:07;;;;;;;5.55;1.80;;;22.80;47.90;;;;;;5026515;28;20265;-45
2021/11/01 02:26:40;;;;;;;7.18;1.95;;;22.80;48.10;;;;;;5030818;28;20239;-50
2021/11/01 02:29:12;;;;;;;5.22;1.63;;;22.80;48.10;;;;;;5030335;28;20243;-43
2021/11/01 02:31:43;;;;;;;5.03;1.92;;;22.80;48.10;;;;;;5015310;28;20244;-49
2021/11/01 02:34:14;;;;;;;5.40;1.77;;;22.90;48.20;;;;;;5016680;28;20307;-46
2021/11/01 02:36:48;;;;;;;6.85;2.10;;;22.90;48.20;;;;;;5026009;28;20231;-51
2021/11/01 02:39:19;;;;;;;8.55;3.22;;;23.00;48.30;;;;;;5025199;28;20227;-50
2021/11/01 02:41:55;;;;;;;13.82;3.75;;;22.90;48.20;;;;;;5031302;28;20258;-49
2021/11/01 02:44:28;;;;;;;16.30;4.30;;;23.00;48.30;;;;;;5030819;28;20644;-47
2021/11/01 02:46:58;;;;;;;16.30;3.97;;;23.00;48.30;;;;;;5029119;28;20887;-44
2021/11/01 02:49:29;;;;;;;13.57;3.67;;;23.10;48.30;;;;;;5030817;28;20283;-46
2021/11/01 02:51:59;;;;;;;12.27;3.13;;;23.10;48.30;;;;;;5032305;28;20196;-54
2021/11/01 02:54:30;;;;;;;10.75;3.53;;;23.10;48.30;;;;;;5030329;28;20266;-46
2021/11/01 02:57:02;;;;;;;10.13;2.85;;;23.20;48.30;;;;;;5029632;28;20228;-44
2021/11/01 02:59:33;;;;;;;9.90;2.63;;;23.20;48.40;;;;;;5030975;28;20196;-51
2021/11/01 03:02:03;;;;;;;7.00;2.72;;;23.20;48.40;;;;;;5029446;28;20313;-54
2021/11/01 03:04:34;;;;;;;8.70;2.83;;;23.20;48.40;;;;;;5030912;28;20259;-48
2021/11/01 03:07:05;;;;;;;9.45;2.63;;;23.30;48.30;;;;;;5030366;28;20196;-48
2021/11/01 03:09:39;;;;;;;9.95;2.45;;;23.30;48.40;;;;;;5028948;28;20628;-47
2021/11/01 03:12:15;;;;;;;7.10;2.35;;;23.30;48.40;;;;;;5029806;28;20522;-45
2021/11/01 03:14:52;;;;;;;8.02;2.70;;;23.40;48.50;;;;;;5029955;28;20251;-56
2021/11/01 03:17:26;;;;;;;7.22;2.42;;;23.40;48.40;;;;;;5030750;28;20287;-51
2021/11/01 03:20:01;;;;;;;8.18;2.55;;;23.40;48.40;;;;;;5017863;28;20574;-46
2021/11/01 03:22:37;;;;;;;12.40;3.85;;;23.40;48.40;;;;;;5031425;28;20311;-48
2021/11/01 03:25:21;;;;;;;8.68;2.97;;;23.50;48.40;;;;;;5031107;28;20200;-49
2021/11/01 03:27:56;;;;;;;7.38;2.75;;;23.50;48.40;;;;;;5025538;28;20209;-44
2021/11/01 03:30:27;;;;;;;10.95;3.17;;;23.50;48.40;;;;;;5031171;28;20254;-49
2021/11/01 03:32:58;;;;;;;10.38;3.33;;;23.60;48.50;;;;;;5030401;28;20267;-44
2021/11/01 03:35:31;;;;;;;12.43;3.67;;;23.60;48.50;;;;;;5029517;28;20242;-53
2021/11/01 03:38:03;;;;;;;8.85;2.67;;;23.70;48.50;;;;;;5028109;28;20262;-48
2021/11/01 03:40:34;;;;;;;8.88;2.90;;;23.70;48.50;;;;;;5029549;28;20777;-55
2021/11/01 03:43:07;;;;;;;8.82;2.88;;;23.70;48.40;;;;;;5030537;28;20224;-52
2021/11/01 03:45:38;;;;;;;10.10;3.00;;;23.80;48.40;;;;;;5029379;28;20643;-44
2021/11/01 03:48:11;;;;;;;9.05;3.08;;;23.80;48.40;;;;;;5021867;28;20193;-45
2021/11/01 03:50:45;;;;;;;12.65;3.47;;;23.80;48.40;;;;;;5029984;28;20250;-55
2021/11/01 03:53:15;;;;;;;7.38;2.67;;;23.90;48.40;;;;;;5030758;28;20289;-46
2021/11/01 03:55:46;;;;;;;7.55;2.47;;;23.90;48.30;;;;;;5029229;28;20232;-55
2021/11/01 03:58:18;;;;;;;6.75;2.50;;;23.90;48.30;;;;;;5029886;28;20235;-46
2021/11/01 04:00:49;;;;;;;7.00;2.70;;;24.00;48.30;;;;;;5030518;28;20235;-55
2021/11/01 04:03:22;;;;;;;7.28;2.40;;;24.00;48.30;;;;;;5023793;28;20319;-43
2021/11/01 04:05:56;;;;;;;8.65;2.83;;;24.00;48.20;;;;;;5018175;28;20261;-50
2021/11/01 04:08:26;;;;;;;9.35;2.85;;;24.00;48.20;;;;;;5024331;28;20213;-50
2021/11/01 04:10:57;;;;;;;6.80;2.28;;;24.10;48.10;;;;;;5029839;28;20296;-50
2021/11/01 04:13:29;;;;;;;5.35;2.20;;;24.10;48.50;;;;;;5029827;28;20247;-46
2021/11/01 04:16:09;;;;;;;7.28;2.45;;;24.10;48.00;;;;;;5030848;28;20192;-47
2021/11/01 04:18:51;;;;;;;7.70;2.05;;;24.10;47.80;;;;;;5015292;28;20200;-50
2021/11/01 04:21:21;;;;;;;5.78;2.28;;;24.20;47.60;;;;;;5027807;28;20250;-51
2021/11/01 04:23:52;;;;;;;4.90;2.10;;;24.20;47.50;;;;;;5018755;28;20260;-54
2021/11/01 04:26:23;;;;;;;6.40;2.33;;;24.20;47.40;;;;;;5023231;28;20204;-48
2021/11/01 04:28:56;;;;;;;3.47;1.65;;;24.20;47.40;;;;;;5023095;28;20204;-52
2021/11/01 04:31:30;;;;;;;5.53;1.85;;;24.20;47.10;;;;;;5028532;28;20196;-53
2021/11/01 04:34:03;;;;;;;8.10;2.67;;;24.30;46.90;;;;;;5029588;28;20256;-52
2021/11/01 04:36:33;;;;;;;4.53;1.83;;;24.20;46.80;;;;;;5026619;28;20298;-49
2021/11/01 04:39:09;;;;;;;4.88;1.65;;;24.30;46.90;;;;;;5012626;28;20204;-48
2021/11/01 04:41:44;;;;;;;2.88;1.30;;;24.30;46.60;;;;;;5030340;28;20721;-53
2021/11/01 04:44:41;;;;;;;3.90;1.35;;;24.30;46.30;;;;;;5030645;28;20220;-47
2021/11/01 04:53:02;;;;;;;4.20;1.60;;;24.30;45.90;;;;;;5029686;28;20699;-52
2021/11/01 04:55:33;;;;;;;2.03;1.05;;;24.30;45.80;;;;;;5027861;28;20237;-48
2021/11/01 04:58:05;;;;;;;2.47;1.02;;;24.30;45.40;;;;;;5020143;28;20271;-47
2021/11/01 05:00:37;;;;;;;2.20;1.00;;;24.30;45.40;;;;;;5024485;28;20287;-50
2021/11/01 05:03:11;;;;;;;2.70;0.90;;;24.30;44.80;;;;;;5027393;28;20235;-47
2021/11/01 05:05:42;;;;;;;3.75;1.05;;;24.30;44.60;;;;;;5027697;28;20195;-46
2021/11/01 05:08:14;;;;;;;6.72;1.02;;;24.40;44.30;;;;;;5025763;28;20251;-47
2021/11/01 05:10:45;;;;;;;4.97;1.13;;;24.40;44.30;;;;;;5027974;28;20197;-43
2021/11/01 05:13:19;;;;;;;2.08;1.10;;;24.30;44.10;;;;;;5028093;28;20217;-42
2021/11/01 05:15:56;;;;;;;3.03;0.88;;;24.30;44.00;;;;;;5029376;28;20293;-42
2021/11/01 05:18:30;;;;;;;2.13;1.05;;;24.40;44.00;;;;;;5016809;28;20727;-39
2021/11/01 05:21:16;;;;;;;5.80;0.98;;;24.40;44.00;;;;;;5017466;28;20200;-46
2021/11/01 05:23:51;;;;;;;2.90;0.80;;;24.40;44.00;;;;;;5028414;28;20238;-44
2021/11/01 05:26:29;;;;;;;2.88;0.90;;;24.40;43.80;;;;;;5026553;28;20574;-41
2021/11/01 05:29:04;;;;;;;2.53;0.98;;;24.40;43.50;;;;;;5025804;28;20262;-48
2021/11/01 05:31:47;;;;;;;4.20;1.00;;;24.40;43.20;;;;;;5028130;28;20203;-43
2021/11/01 05:34:18;;;;;;;2.42;1.10;;;24.40;43.00;;;;;;5028013;28;20722;-44
2021/11/01 05:36:49;;;;;;;2.65;0.75;;;24.40;43.00;;;;;;5028045;28;20204;-44
2021/11/01 05:39:19;;;;;;;4.00;1.38;;;24.40;43.00;;;;;;5016599;28;20232;-44
2021/11/01 05:41:50;;;;;;;1.65;0.77;;;24.40;42.80;;;;;;5027379;28;20258;-47
2021/11/01 05:44:20;;;;;;;2.78;1.05;;;24.40;42.70;;;;;;5030284;28;20298;-42
2021/11/01 05:46:53;;;;;;;2.67;1.00;;;24.50;42.80;;;;;;5029394;28;20197;-42
2021/11/01 05:49:23;;;;;;;2.45;1.00;;;24.40;42.70;;;;;;5027982;28;20242;-44
2021/11/01 05:51:55;;;;;;;4.10;0.90;;;24.40;43.00;;;;;;5010937;28;20632;-44
2021/11/01 05:54:30;;;;;;;1.02;0.75;;;24.50;43.10;;;;;;5022108;28;20224;-48
2021/11/01 05:57:08;;;;;;;1.60;1.00;;;24.50;43.10;;;;;;5028456;28;20675;-41
2021/11/01 06:00:06;;;;;;;2.03;0.70;;;24.50;42.90;;;;;;5026442;28;20268;-41
2021/11/01 06:05:21;;;;;;;1.63;0.90;;;24.50;42.70;;;;;;5027730;28;20204;-41
2021/11/01 06:08:18;;;;;;;2.17;0.70;;;24.50;42.70;;;;;;5017859;28;20655;-44
2021/11/01 06:13:37;;;;;;;2.15;0.82;;;24.50;42.90;;;;;;5017947;28;20227;-40
2021/11/01 06:16:08;;;;;;;2.50;1.10;;;24.50;43.00;;;;;;5026875;28;20787;-45
2021/11/01 06:18:41;;;;;;;2.47;0.90;;;24.50;43.00;;;;;;5026657;28;20620;-48
2021/11/01 06:21:14;;;;;;;5.68;1.25;;;24.50;43.20;;;;;;5027478;28;20289;-46
2021/11/01 06:23:46;;;;;;;2.85;0.90;;;24.50;41.70;;;;;;5007427;28;20775;-42
2021/11/01 06:26:17;;;;;;;1.92;1.00;;;24.50;40.50;;;;;;5028766;28;20196;-48
2021/11/01 06:28:51;;;;;;;2.50;1.15;;;24.40;40.10;;;;;;5026758;28;20295;-39
2021/11/01 06:31:24;;;;;;;2.95;1.10;;;24.40;40.50;;;;;;5027568;28;20219;-43
2021/11/01 06:34:16;;;;;;;3.92;1.30;;;24.30;40.70;;;;;;5025756;28;20348;-45
2021/11/01 06:39:52;;;;;;;5.40;0.98;;;24.30;41.00;;;;;;5003519;28;20288;-47
2021/11/01 06:42:30;;;;;;;2.95;1.08;;;24.40;41.10;;;;;;5017369;28;20281;-44
2021/11/01 06:45:18;;;;;;;3.47;1.00;;;24.30;41.20;;;;;;5019477;28;20251;-44
2021/11/01 06:50:54;;;;;;;3.58;1.00;;;24.30;41.70;;;;;;5026401;28;20334;-46
2021/11/01 06:56:33;;;;;;;2.60;0.80;;;24.30;42.00;;;;;;5025347;28;20203;-45
2021/11/01 07:15:50;;;;;;;3.72;1.40;;;24.20;42.10;;;;;;5025387;28;20207;-48
2021/11/01 07:18:25;;;;;;;2.50;1.27;;;24.20;42.10;;;;;;5032080;28;20575;-49
2021/11/01 07:21:08;;;;;;;4.55;1.23;;;24.20;42.10;;;;;;5029840;28;20200;-50
2021/11/01 08:28:22;;;;;;;2.60;1.20;;;23.70;42.50;;;;;;4953757;28;20261;-47
2021/11/01 08:39:47;;;;;;;1.58;1.00;;;23.70;42.70;;;;;;5026573;28;20246;-46
2021/11/01 08:42:35;;;;;;;1.73;0.80;;;23.60;42.80;;;;;;5030110;28;20204;-50
2021/11/01 08:45:23;;;;;;;2.78;1.30;;;23.60;42.90;;;;;;5027635;28;20200;-48
2021/11/01 08:50:58;;;;;;;2.00;1.05;;;23.60;43.00;;;;;;5015347;28;20212;-43
2021/11/01 09:02:07;;;;;;;1.70;0.80;;;23.60;43.10;;;;;;5027214;28;20203;-48
2021/11/01 09:04:47;;;;;;;1.65;0.80;;;23.60;43.20;;;;;;5027630;28;20710;-39
2021/11/01 09:18:55;;;;;;;2.40;1.10;;;23.40;43.30;;;;;;5080487;28;20221;-49
2021/11/01 09:21:39;;;;;;;1.75;0.90;;;23.40;43.40;;;;;;5080847;28;20716;-43
2021/11/01 09:27:00;;;;;;;1.63;1.10;;;23.40;43.50;;;;;;5075627;28;20324;-39
2021/11/01 09:29:45;;;;;;;1.83;0.90;;;23.30;43.50;;;;;;5072937;28;20194;-41
2021/11/01 09:41:00;;;;;;;1.52;0.90;;;23.30;43.60;;;;;;5060898;28;20296;-37
2021/11/01 09:43:31;;;;;;;1.35;0.75;;;23.20;43.70;;;;;;5080523;28;20304;-42
2021/11/01 09:46:03;;;;;;;1.60;0.90;;;23.20;43.70;;;;;;5080184;28;20202;-37
2021/11/01 09:48:36;;;;;;;1.33;0.70;;;23.20;43.70;;;;;;5080780;28;20670;-41
2021/11/01 09:51:06;;;;;;;1.92;0.98;;;23.20;43.80;;;;;;5082886;28;20781;-42
2021/11/01 09:53:44;;;;;;;1.63;0.80;;;23.10;43.80;;;;;;5073873;28;21011;-37
2021/11/01 09:56:29;;;;;;;1.33;0.90;;;23.10;43.90;;;;;;5065120;28;20391;-40
2021/11/01 09:59:15;;;;;;;1.30;0.70;;;23.10;43.90;;;;;;5065936;28;20202;-40
2021/11/01 10:01:48;;;;;;;2.55;1.05;;;23.10;44.00;;;;;;5082415;28;20834;-37
2021/11/01 10:04:23;;;;;;;1.40;0.93;;;23.00;44.00;;;;;;5066660;28;20229;-40
2021/11/01 10:07:15;;;;;;;1.70;0.98;;;23.00;44.10;;;;;;5066838;28;20237;-46
2021/11/01 10:09:46;;;;;;;1.48;0.95;;;23.00;44.10;;;;;;5066832;28;20203;-42
2021/11/01 10:12:21;;;;;;;1.88;1.02;;;22.90;44.10;;;;;;5076521;28;20202;-39
2021/11/01 10:14:59;;;;;;;1.40;0.80;;;22.90;44.20;;;;;;5072341;28;20257;-43
2021/11/01 10:17:37;;;;;;;1.20;0.82;;;22.90;44.20;;;;;;5072865;28;20204;-37
2021/11/01 10:20:13;;;;;;;2.38;0.90;;;22.80;44.20;;;;;;5079996;28;20205;-39
2021/11/01 10:22:44;;;;;;;1.35;0.88;;;22.80;44.20;;;;;;5079381;28;20289;-38
2021/11/01 10:25:18;;;;;;;1.50;1.02;;;22.80;44.30;;;;;;5076003;28;20278;-48
2021/11/01 10:27:54;;;;;;;1.50;0.73;;;22.80;44.30;;;;;;5037686;28;20276;-39
2021/11/01 10:30:26;;;;;;;1.10;0.82;;;22.80;44.30;;;;;;5052917;28;20199;-37
2021/11/01 10:32:58;;;;;;;1.20;0.80;;;22.80;44.30;;;;;;5069117;28;20588;-37
2021/11/01 10:35:33;;;;;;;1.35;1.00;;;22.70;44.30;;;;;;5062802;28;20230;-38
2021/11/01 10:38:16;;;;;;;1.60;0.88;;;22.70;44.40;;;;;;5051639;28;20767;-37
2021/11/01 10:40:54;;;;;;;1.15;0.63;;;22.60;44.50;;;;;;5062754;28;20199;-37
2021/11/01 11:11:57;;;;;;;2.28;0.90;;;22.30;45.20;;;;;;5056021;28;20206;-38
2021/11/01 11:14:31;;;;;;;1.42;0.77;;;22.30;45.20;;;;;;5050013;28;20231;-39
2021/11/01 11:17:19;;;;;;;1.05;0.70;;;22.30;45.30;;;;;;5051366;28;20223;-41
2021/11/01 11:22:55;;;;;;;2.33;0.95;;;22.20;45.20;;;;;;5049660;28;20203;-38
2021/11/01 11:31:31;;;;;;;3.20;0.88;;;22.10;45.30;;;;;;5033397;28;20207;-37
2021/11/01 11:40:05;;;;;;;1.90;0.75;;;22.00;45.50;;;;;;5059720;28;20206;-39
2021/11/01 11:48:18;;;;;;;1.95;0.98;;;21.90;45.60;;;;;;5050723;28;20207;-40
2021/11/01 11:50:50;;;;;;;1.58;0.73;;;21.90;45.60;;;;;;5054883;28;20191;-39
2021/11/01 11:53:22;;;;;;;1.55;1.00;;;21.90;45.60;;;;;;5062837;28;20353;-41
2021/11/01 11:56:07;;;;;;;1.00;0.85;;;21.80;45.60;;;;;;5049679;28;20254;-42
2021/11/01 11:58:40;;;;;;;1.45;0.80;;;21.80;45.60;;;;;;5034198;28;20211;-37
2021/11/01 12:01:26;;;;;;;2.47;0.80;;;21.80;45.70;;;;;;5066643;28;20230;-37
2021/11/01 12:03:58;;;;;;;0.98;0.70;;;21.80;45.80;;;;;;5064957;28;20248;-38
2021/11/01 12:06:50;;;;;;;1.27;0.70;;;21.80;45.80;;;;;;5049309;28;20199;-41
2021/11/01 12:09:26;;;;;;;1.67;1.00;;;21.70;45.80;;;;;;5047282;28;20265;-40
2021/11/01 12:12:19;;;;;;;1.00;0.73;;;21.70;45.80;;;;;;5050502;28;20195;-41
2021/11/01 12:17:38;;;;;;;0.98;0.70;;;21.60;45.90;;;;;;5050574;28;20201;-37
2021/11/01 12:20:11;;;;;;;0.88;0.80;;;21.60;46.00;;;;;;5062643;28;20282;-43
2021/11/01 12:22:49;;;;;;;0.70;0.63;;;21.50;45.90;;;;;;5063463;28;20653;-45
2021/11/01 12:25:24;;;;;;;1.25;0.80;;;21.50;46.00;;;;;;5055200;28;20666;-39
2021/11/01 12:28:01;;;;;;;1.70;0.82;;;21.50;46.10;;;;;;5056080;28;20206;-42
2021/11/01 12:30:43;;;;;;;0.98;0.60;;;21.40;46.00;;;;;;5056166;28;20198;-41
2021/11/01 12:33:14;;;;;;;0.93;0.68;;;21.40;46.00;;;;;;5062791;28;20218;-38
2021/11/01 12:35:48;;;;;;;2.17;0.60;;;21.40;46.00;;;;;;5062922;28;20223;-37
2021/11/01 12:38:21;;;;;;;2.20;0.73;;;21.40;46.10;;;;;;5065006;28;20196;-42
2021/11/01 12:41:00;;;;;;;1.13;0.75;;;21.30;46.00;;;;;;5049511;28;20192;-44
2021/11/01 12:49:46;;;;;;;1.45;0.63;;;21.30;46.10;;;;;;5048674;28;20284;-42
2021/11/01 12:57:50;;;;;;;0.98;0.68;;;21.20;46.10;;;;;;5055745;28;20832;-43
2021/11/01 13:00:21;;;;;;;1.10;0.73;;;21.20;46.20;;;;;;5049641;28;20643;-43
2021/11/01 13:02:54;;;;;;;1.35;0.70;;;21.10;46.20;;;;;;5049318;28;20238;-40
2021/11/01 13:05:26;;;;;;;1.08;0.68;;;21.10;46.20;;;;;;5049602;28;20261;-41
2021/11/01 13:08:01;;;;;;;1.67;0.70;;;21.10;46.20;;;;;;5058382;28;20222;-47
2021/11/01 13:10:37;;;;;;;1.13;0.55;;;21.10;46.30;;;;;;5062596;28;20198;-44
2021/11/01 13:18:41;;;;;;;1.35;0.68;;;21.00;46.30;;;;;;5059157;28;20341;-43
2021/11/01 13:21:17;;;;;;;1.10;0.70;;;20.90;46.30;;;;;;5049036;28;20438;-41
2021/11/01 13:24:00;;;;;;;0.60;0.50;;;20.90;46.30;;;;;;5048016;28;20671;-40
2021/11/01 13:26:54;;;;;;;0.82;0.60;;;20.90;46.30;;;;;;5063619;28;20210;-37
2021/11/01 13:34:42;;;;;;;0.80;0.70;;;20.90;46.40;;;;;;5034656;28;20196;-48
2021/11/01 13:38:12;;;;;;;0.70;0.60;;;20.80;46.30;;;;;;5025734;28;20273;-38
2021/11/01 13:40:45;;;;;;;1.13;0.63;;;20.70;46.30;;;;;;5062653;28;20677;-37
2021/11/01 13:43:26;;;;;;;1.17;0.68;;;20.70;46.40;;;;;;5032302;28;20222;-41
2021/11/01 13:45:59;;;;;;;1.17;0.70;;;20.70;46.40;;;;;;5050692;28;20235;-37
2021/11/01 13:48:30;;;;;;;1.00;0.75;;;20.70;46.40;;;;;;5064982;28;20703;-37
2021/11/01 13:51:12;;;;;;;1.13;0.70;;;20.60;46.40;;;;;;5048146;28;20640;-37
2021/11/01 13:54:02;;;;;;;0.70;0.50;;;20.60;46.40;;;;;;5049342;28;20909;-46
2021/11/01 13:56:39;;;;;;;0.70;0.63;;;20.60;46.50;;;;;;5047345;28;20771;-41
2021/11/01 13:59:26;;;;;;;2.03;0.70;;;20.60;46.50;;;;;;5048353;28;20204;-40
2021/11/01 14:02:17;;;;;;;1.23;0.55;;;20.60;46.50;;;;;;5051409;28;20200;-39
2021/11/01 14:13:17;;;;;;;0.80;0.60;;;20.50;46.60;;;;;;5057105;28;20680;-40
2021/11/01 14:27:14;;;;;;;0.77;0.50;;;20.30;46.60;;;;;;5052690;28;20256;-39
2021/11/01 14:30:07;;;;;;;1.45;0.77;;;20.30;46.60;;;;;;5052333;28;20203;-40
2021/11/01 14:55:42;;;;;;;1.25;0.60;;;20.10;46.80;;;;;;5062747;28;20226;-37
2021/11/01 15:07:13;;;;;;;0.80;0.50;;;20.00;46.80;;;;;;5059742;28;20264;-46
2021/11/01 15:13:06;;;;;;;0.82;0.60;;;20.00;46.80;;;;;;5053738;28;20206;-45
2021/11/01 15:18:34;;;;;;;1.27;0.77;;;19.90;46.90;;;;;;5050775;28;20579;-41
2021/11/01 15:21:09;;;;;;;0.65;0.60;;;19.90;46.90;;;;;;5059252;28;20195;-42
2021/11/01 15:24:03;;;;;;;0.93;0.60;;;19.80;47.00;;;;;;5057598;28;20250;-41
2021/11/01 15:26:59;;;;;;;0.75;0.60;;;19.80;47.00;;;;;;5050940;28;20662;-39
2021/11/01 16:17:18;;;;;;;0.90;0.60;;;19.50;47.10;;;;;;5049542;28;20245;-45
2021/11/01 16:19:52;;;;;;;1.25;0.60;;;19.50;47.20;;;;;;5052346;28;20206;-43
2021/11/01 16:22:27;;;;;;;0.60;0.50;;;19.50;47.30;;;;;;5063709;28;20252;-41
2021/11/01 16:24:59;;;;;;;0.70;0.47;;;19.50;47.30;;;;;;5049457;28;20451;-39
2021/11/01 16:27:29;;;;;;;0.60;0.50;;;19.40;47.30;;;;;;5050100;28;20286;-38
2021/11/01 16:30:02;;;;;;;0.65;0.50;;;19.40;47.20;;;;;;5048656;28;20210;-40
2021/11/01 16:32:36;;;;;;;0.75;0.65;;;19.40;47.30;;;;;;5062477;28;20286;-40
2021/11/01 16:35:09;;;;;;;0.85;0.68;;;19.40;47.30;;;;;;5051416;28;20210;-38
2021/11/01 16:37:46;;;;;;;0.65;0.40;;;19.40;47.30;;;;;;5054202;28;20674;-40
2021/11/01 16:40:17;;;;;;;0.50;0.50;;;19.40;47.30;;;;;;5055762;28;20200;-38
2021/11/01 16:42:48;;;;;;;0.88;0.50;;;19.30;47.30;;;;;;5049845;28;20234;-38
2021/11/01 16:45:25;;;;;;;0.45;0.40;;;19.30;47.30;;;;;;5049468;28;20743;-37
2021/11/01 16:47:55;;;;;;;1.27;0.63;;;19.30;47.30;;;;;;5047970;28;20285;-42
2021/11/01 16:50:25;;;;;;;0.82;0.50;;;19.30;47.30;;;;;;5065172;28;20204;-39
2021/11/01 16:52:58;;;;;;;0.95;0.70;;;19.30;47.40;;;;;;5065918;28;20232;-38
2021/11/01 16:55:32;;;;;;;1.95;0.80;;;19.30;47.40;;;;;;5049374;28;20750;-37
2021/11/01 16:58:11;;;;;;;1.02;0.80;;;19.30;47.40;;;;;;5062157;28;20252;-41
2021/11/01 17:00:50;;;;;;;1.30;0.80;;;19.20;47.30;;;;;;5050843;28;20211;-47
2021/11/01 17:03:33;;;;;;;1.02;0.70;;;19.20;47.40;;;;;;5060081;28;20215;-46
2021/11/01 17:06:11;;;;;;;0.98;0.68;;;19.20;47.40;;;;;;5054752;28;20859;-48
2021/11/01 17:22:52;;;;;;;1.35;0.82;;;19.20;47.50;;;;;;5055232;28;20889;-39
2021/11/01 17:25:28;;;;;;;1.10;0.80;;;19.20;47.60;;;;;;5054258;28;20230;-39
2021/11/01 17:31:24;;;;;;;1.65;0.90;;;19.10;47.60;;;;;;4985956;28;20205;-45
2021/11/01 17:36:56;;;;;;;1.63;0.90;;;19.10;47.60;;;;;;5064054;28;20241;-41
2021/11/01 18:38:40;;;;;;;1.63;0.90;;;19.00;47.90;;;;;;5065210;28;20218;-47
2021/11/01 18:41:15;;;;;;;1.75;0.90;;;19.00;47.90;;;;;;5051289;28;20200;-47
2021/11/01 18:52:22;;;;;;;1.92;1.00;;;19.00;47.90;;;;;;5035614;28;20269;-47
2021/11/01 18:54:56;;;;;;;3.35;1.27;;;19.00;48.10;;;;;;5063390;28;20215;-38
2021/11/01 18:57:30;;;;;;;2.90;1.10;;;19.00;48.10;;;;;;5042606;28;20227;-38
2021/11/01 19:00:05;;;;;;;2.45;1.00;;;19.00;48.20;;;;;;5066351;28;20626;-46
2021/11/01 19:02:47;;;;;;;2.47;1.30;;;19.00;48.30;;;;;;5053174;28;20270;-46
2021/11/01 19:05:26;;;;;;;3.17;1.20;;;19.00;48.40;;;;;;5061823;28;20214;-41
2021/11/01 19:08:04;;;;;;;3.15;1.48;;;19.00;48.50;;;;;;5048512;28;20199;-38
2021/11/01 20:04:31;;;;;;;6.72;2.70;;;19.00;49.20;;;;;;5058707;28;20253;-41
2021/11/01 21:25:53;;;;;;;8.05;2.22;;;19.10;50.30;;;;;;5061009;28;20207;-46
2021/11/01 21:28:24;;;;;;;7.63;2.40;;;19.10;50.20;;;;;;5049709;28;20222;-50
2021/11/01 21:30:54;;;;;;;5.35;2.30;;;19.10;50.20;;;;;;5049261;28;20298;-44
2021/11/01 21:33:30;;;;;;;5.68;2.08;;;19.10;50.20;;;;;;5049647;28;20263;-42
2021/11/01 21:36:07;;;;;;;6.60;2.28;;;19.10;50.20;;;;;;5050224;28;20701;-40
2021/11/01 21:38:37;;;;;;;9.30;2.42;;;19.10;50.20;;;;;;5048745;28;20896;-48
2021/11/01 21:41:08;;;;;;;6.15;2.53;;;19.10;50.10;;;;;;5060468;28;20289;-44
2021/11/01 21:43:39;;;;;;;7.95;2.53;;;19.10;50.10;;;;;;5058701;28;20305;-45
2021/11/01 21:46:10;;;;;;;6.22;2.10;;;19.10;50.30;;;;;;5057322;28;20203;-41
2021/11/01 21:48:40;;;;;;;5.13;2.03;;;19.10;50.10;;;;;;5049031;28;20282;-45
2021/11/01 21:51:16;;;;;;;5.13;1.92;;;19.10;50.10;;;;;;5050121;28;20283;-41
2021/11/01 21:53:54;;;;;;;9.27;2.97;;;19.10;50.00;;;;;;5050908;28;20268;-43
2021/11/01 21:56:24;;;;;;;6.70;2.13;;;19.10;50.10;;;;;;5048407;28;20695;-44
2021/11/01 22:10:04;;;;;;;5.60;2.17;;;19.20;50.20;;;;;;5064967;28;20213;-42
2021/11/01 22:18:26;;;;;;;6.05;1.95;;;19.20;50.00;;;;;;5024948;28;20234;-41
2021/11/01 22:21:00;;;;;;;6.03;2.03;;;19.20;49.90;;;;;;5055229;28;20203;-38
2021/11/01 22:23:38;;;;;;;6.28;2.20;;;19.20;49.90;;;;;;5065286;28;20840;-45
2021/11/01 22:26:21;;;;;;;6.47;2.38;;;19.20;49.90;;;;;;5057995;28;20858;-44
2021/11/01 22:34:33;;;;;;;6.15;2.05;;;19.20;49.80;;;;;;5059992;28;20229;-41
2021/11/01 22:39:56;;;;;;;4.03;1.77;;;19.20;49.80;;;;;;5052352;28;20214;-45
2021/11/01 22:42:41;;;;;;;6.80;2.13;;;19.20;49.70;;;;;;5043578;28;20199;-42
2021/11/01 22:45:21;;;;;;;5.50;2.13;;;19.20;49.70;;;;;;5056261;28;20199;-43
2021/11/01 22:56:23;;;;;;;4.28;2.28;;;19.20;49.70;;;;;;5049631;28;20202;-42
2021/11/01 22:58:58;;;;;;;4.85;1.80;;;19.20;49.60;;;;;;5038090;28;20207;-45
2021/11/01 23:01:36;;;;;;;4.55;2.33;;;19.20;49.50;;;;;;5052099;28;20264;-43
2021/11/01 23:04:11;;;;;;;3.22;1.77;;;19.20;49.40;;;;;;5069143;28;20678;-45
2021/11/01 23:07:00;;;;;;;3.95;1.98;;;19.30;49.50;;;;;;5054458;28;20206;-43